sensor_id;sensor_type;location;lat;lon;timestamp;P1;durP1;ratioP1;P2;durP2;ratioP2
4084;SDS011;2057;50.858;6.572;2023-04-03T00:01:05;4.20;;;2.40;;
4084;SDS011;2057;50.858;6.572;2023-04-03T00:03:31;3.97;;;2.20;;
4084;SDS011;2057;50.858;6.572;2023-04-03T00:05:56;5.10;;;2.50;;
4084;SDS011;2057;50.858;6.572;2023-04-03T00:08:22;7.93;;;2.60;;
4084;SDS011;2057;50.858;6.572;2023-04-03T00:10:47;3.80;;;2.70;;
4084;SDS011;2057;50.858;6.572;2023-04-03T00:13:13;4.63;;;2.23;;
4084;SDS011;2057;50.858;6.572;2023-04-03T00:15:39;6.55;;;2.65;;
4084;SDS011;2057;50.858;6.572;2023-04-03T00:18:05;9.18;;;2.42;;
4084;SDS011;2057;50.858;6.572;2023-04-03T00:20:31;9.95;;;2.60;;
4084;SDS011;2057;50.858;6.572;2023-04-03T00:22:58;11.13;;;2.30;;
4084;SDS011;2057;50.858;6.572;2023-04-03T00:25:23;5.07;;;2.53;;
4084;SDS011;2057;50.858;6.572;2023-04-03T00:27:49;6.13;;;2.53;;
4084;SDS011;2057;50.858;6.572;2023-04-03T00:30:15;4.23;;;2.50;;
4084;SDS011;2057;50.858;6.572;2023-04-03T00:32:42;6.88;;;2.25;;
4084;SDS011;2057;50.858;6.572;2023-04-03T00:35:08;4.87;;;1.97;;
4084;SDS011;2057;50.858;6.572;2023-04-03T00:37:34;6.43;;;2.67;;
4084;SDS011;2057;50.858;6.572;2023-04-03T00:39:59;5.60;;;2.30;;
4084;SDS011;2057;50.858;6.572;2023-04-03T00:42:25;6.20;;;2.63;;
4084;SDS011;2057;50.858;6.572;2023-04-03T00:47:21;7.22;;;2.25;;
4084;SDS011;2057;50.858;6.572;2023-04-03T00:49:48;3.28;;;2.30;;
4084;SDS011;2057;50.858;6.572;2023-04-03T00:52:16;4.63;;;2.10;;
4084;SDS011;2057;50.858;6.572;2023-04-03T00:54:44;3.72;;;2.42;;
4084;SDS011;2057;50.858;6.572;2023-04-03T00:57:12;8.90;;;2.60;;
4084;SDS011;2057;50.858;6.572;2023-04-03T00:59:40;5.05;;;2.60;;
4084;SDS011;2057;50.858;6.572;2023-04-03T01:02:09;8.10;;;3.00;;
4084;SDS011;2057;50.858;6.572;2023-04-03T01:04:36;8.27;;;3.30;;
4084;SDS011;2057;50.858;6.572;2023-04-03T01:09:43;4.30;;;2.83;;
4084;SDS011;2057;50.858;6.572;2023-04-03T01:12:23;4.85;;;2.85;;
4084;SDS011;2057;50.858;6.572;2023-04-03T01:14:53;6.07;;;3.00;;
4084;SDS011;2057;50.858;6.572;2023-04-03T01:17:42;6.95;;;3.20;;
4084;SDS011;2057;50.858;6.572;2023-04-03T01:28:13;6.22;;;3.80;;
4084;SDS011;2057;50.858;6.572;2023-04-03T01:30:42;11.55;;;3.58;;
4084;SDS011;2057;50.858;6.572;2023-04-03T01:33:13;9.60;;;3.85;;
4084;SDS011;2057;50.858;6.572;2023-04-03T01:35:38;8.27;;;3.50;;
4084;SDS011;2057;50.858;6.572;2023-04-03T01:38:04;13.27;;;4.17;;
4084;SDS011;2057;50.858;6.572;2023-04-03T01:40:29;7.80;;;3.80;;
4084;SDS011;2057;50.858;6.572;2023-04-03T01:42:55;7.33;;;4.20;;
4084;SDS011;2057;50.858;6.572;2023-04-03T01:45:20;8.83;;;4.20;;
4084;SDS011;2057;50.858;6.572;2023-04-03T01:47:46;12.27;;;5.90;;
4084;SDS011;2057;50.858;6.572;2023-04-03T01:50:11;10.03;;;5.07;;
4084;SDS011;2057;50.858;6.572;2023-04-03T01:52:36;14.83;;;6.80;;
4084;SDS011;2057;50.858;6.572;2023-04-03T01:55:02;10.43;;;4.60;;
4084;SDS011;2057;50.858;6.572;2023-04-03T01:57:27;20.13;;;5.50;;
4084;SDS011;2057;50.858;6.572;2023-04-03T01:59:53;4.97;;;3.20;;
4084;SDS011;2057;50.858;6.572;2023-04-03T02:02:18;7.10;;;4.60;;
4084;SDS011;2057;50.858;6.572;2023-04-03T02:04:45;9.95;;;5.45;;
4084;SDS011;2057;50.858;6.572;2023-04-03T02:07:10;6.83;;;4.87;;
4084;SDS011;2057;50.858;6.572;2023-04-03T02:09:36;10.47;;;5.30;;
4084;SDS011;2057;50.858;6.572;2023-04-03T02:12:03;13.33;;;6.37;;
4084;SDS011;2057;50.858;6.572;2023-04-03T02:14:29;7.60;;;5.20;;
4084;SDS011;2057;50.858;6.572;2023-04-03T02:16:54;10.80;;;4.17;;
4084;SDS011;2057;50.858;6.572;2023-04-03T02:19:20;8.43;;;4.20;;
4084;SDS011;2057;50.858;6.572;2023-04-03T02:21:45;5.70;;;3.87;;
4084;SDS011;2057;50.858;6.572;2023-04-03T02:24:11;15.83;;;4.30;;
4084;SDS011;2057;50.858;6.572;2023-04-03T02:26:36;10.43;;;3.50;;
4084;SDS011;2057;50.858;6.572;2023-04-03T02:29:01;6.27;;;3.80;;
4084;SDS011;2057;50.858;6.572;2023-04-03T02:31:27;6.50;;;3.87;;
4084;SDS011;2057;50.858;6.572;2023-04-03T02:33:53;10.90;;;4.20;;
4084;SDS011;2057;50.858;6.572;2023-04-03T02:36:18;7.20;;;3.90;;
4084;SDS011;2057;50.858;6.572;2023-04-03T02:38:43;7.00;;;3.50;;
4084;SDS011;2057;50.858;6.572;2023-04-03T02:41:10;6.97;;;3.58;;
4084;SDS011;2057;50.858;6.572;2023-04-03T02:43:37;12.80;;;3.97;;
4084;SDS011;2057;50.858;6.572;2023-04-03T02:46:02;11.80;;;3.97;;
4084;SDS011;2057;50.858;6.572;2023-04-03T02:48:28;7.37;;;3.50;;
4084;SDS011;2057;50.858;6.572;2023-04-03T02:50:54;7.17;;;3.50;;
4084;SDS011;2057;50.858;6.572;2023-04-03T02:53:19;6.97;;;4.13;;
4084;SDS011;2057;50.858;6.572;2023-04-03T02:55:45;11.03;;;3.90;;
4084;SDS011;2057;50.858;6.572;2023-04-03T02:58:10;8.43;;;3.17;;
4084;SDS011;2057;50.858;6.572;2023-04-03T03:00:36;5.57;;;3.63;;
4084;SDS011;2057;50.858;6.572;2023-04-03T03:03:02;8.93;;;3.78;;
4084;SDS011;2057;50.858;6.572;2023-04-03T03:05:27;4.07;;;3.67;;
4084;SDS011;2057;50.858;6.572;2023-04-03T03:07:53;8.07;;;3.43;;
4084;SDS011;2057;50.858;6.572;2023-04-03T03:10:19;12.00;;;3.78;;
4084;SDS011;2057;50.858;6.572;2023-04-03T03:12:45;6.43;;;3.60;;
4084;SDS011;2057;50.858;6.572;2023-04-03T03:15:10;4.00;;;3.00;;
4084;SDS011;2057;50.858;6.572;2023-04-03T03:17:36;4.70;;;3.23;;
4084;SDS011;2057;50.858;6.572;2023-04-03T03:20:01;7.60;;;4.20;;
4084;SDS011;2057;50.858;6.572;2023-04-03T03:22:30;5.05;;;3.88;;
4084;SDS011;2057;50.858;6.572;2023-04-03T03:24:56;12.07;;;4.27;;
4084;SDS011;2057;50.858;6.572;2023-04-03T03:27:21;7.43;;;4.00;;
4084;SDS011;2057;50.858;6.572;2023-04-03T03:29:47;8.70;;;4.27;;
4084;SDS011;2057;50.858;6.572;2023-04-03T03:32:12;8.90;;;4.20;;
4084;SDS011;2057;50.858;6.572;2023-04-03T03:34:37;7.87;;;4.90;;
4084;SDS011;2057;50.858;6.572;2023-04-03T03:37:03;5.57;;;4.60;;
4084;SDS011;2057;50.858;6.572;2023-04-03T03:39:28;12.27;;;5.70;;
4084;SDS011;2057;50.858;6.572;2023-04-03T03:41:54;12.00;;;5.73;;
4084;SDS011;2057;50.858;6.572;2023-04-03T03:44:19;7.13;;;5.53;;
4084;SDS011;2057;50.858;6.572;2023-04-03T03:46:45;6.27;;;4.60;;
4084;SDS011;2057;50.858;6.572;2023-04-03T03:49:11;9.10;;;5.03;;
4084;SDS011;2057;50.858;6.572;2023-04-03T03:51:37;14.00;;;5.50;;
4084;SDS011;2057;50.858;6.572;2023-04-03T03:54:03;7.78;;;4.55;;
4084;SDS011;2057;50.858;6.572;2023-04-03T03:56:29;4.47;;;4.05;;
4084;SDS011;2057;50.858;6.572;2023-04-03T03:58:55;13.00;;;5.27;;
4084;SDS011;2057;50.858;6.572;2023-04-03T04:01:21;9.77;;;4.90;;
4084;SDS011;2057;50.858;6.572;2023-04-03T04:03:47;8.23;;;4.95;;
4084;SDS011;2057;50.858;6.572;2023-04-03T04:06:12;12.63;;;5.37;;
4084;SDS011;2057;50.858;6.572;2023-04-03T04:08:38;6.80;;;4.00;;
4084;SDS011;2057;50.858;6.572;2023-04-03T04:11:03;9.30;;;5.00;;
4084;SDS011;2057;50.858;6.572;2023-04-03T04:13:28;10.30;;;4.17;;
4084;SDS011;2057;50.858;6.572;2023-04-03T04:15:54;9.70;;;5.60;;
4084;SDS011;2057;50.858;6.572;2023-04-03T04:18:19;6.07;;;4.63;;
4084;SDS011;2057;50.858;6.572;2023-04-03T04:20:46;14.07;;;5.13;;
4084;SDS011;2057;50.858;6.572;2023-04-03T04:23:11;7.07;;;5.10;;
4084;SDS011;2057;50.858;6.572;2023-04-03T04:25:37;10.03;;;4.10;;
4084;SDS011;2057;50.858;6.572;2023-04-03T04:28:02;5.50;;;4.43;;
4084;SDS011;2057;50.858;6.572;2023-04-03T04:30:27;14.20;;;4.93;;
4084;SDS011;2057;50.858;6.572;2023-04-03T04:32:53;8.17;;;4.63;;
4084;SDS011;2057;50.858;6.572;2023-04-03T04:35:18;6.27;;;4.50;;
4084;SDS011;2057;50.858;6.572;2023-04-03T04:37:43;6.43;;;4.00;;
4084;SDS011;2057;50.858;6.572;2023-04-03T04:40:09;17.73;;;5.10;;
4084;SDS011;2057;50.858;6.572;2023-04-03T04:42:35;6.03;;;4.27;;
4084;SDS011;2057;50.858;6.572;2023-04-03T04:45:00;5.90;;;4.10;;
4084;SDS011;2057;50.858;6.572;2023-04-03T04:47:25;15.63;;;4.77;;
4084;SDS011;2057;50.858;6.572;2023-04-03T04:49:53;6.32;;;3.83;;
4084;SDS011;2057;50.858;6.572;2023-04-03T04:52:18;11.17;;;3.87;;
4084;SDS011;2057;50.858;6.572;2023-04-03T04:54:44;6.00;;;3.87;;
4084;SDS011;2057;50.858;6.572;2023-04-03T04:57:10;8.60;;;5.07;;
4084;SDS011;2057;50.858;6.572;2023-04-03T04:59:35;10.90;;;4.17;;
4084;SDS011;2057;50.858;6.572;2023-04-03T05:02:01;5.37;;;3.20;;
4084;SDS011;2057;50.858;6.572;2023-04-03T05:04:26;11.30;;;4.60;;
4084;SDS011;2057;50.858;6.572;2023-04-03T05:06:51;7.07;;;3.60;;
4084;SDS011;2057;50.858;6.572;2023-04-03T05:09:17;6.63;;;3.73;;
4084;SDS011;2057;50.858;6.572;2023-04-03T05:11:44;5.05;;;3.45;;
4084;SDS011;2057;50.858;6.572;2023-04-03T05:14:10;9.23;;;4.73;;
4084;SDS011;2057;50.858;6.572;2023-04-03T05:16:36;14.27;;;4.47;;
4084;SDS011;2057;50.858;6.572;2023-04-03T05:19:01;6.60;;;4.00;;
4084;SDS011;2057;50.858;6.572;2023-04-03T05:21:27;12.73;;;3.60;;
4084;SDS011;2057;50.858;6.572;2023-04-03T05:23:56;7.05;;;3.85;;
4084;SDS011;2057;50.858;6.572;2023-04-03T05:26:22;9.73;;;3.57;;
4084;SDS011;2057;50.858;6.572;2023-04-03T05:28:47;10.00;;;3.40;;
4084;SDS011;2057;50.858;6.572;2023-04-03T05:31:13;6.40;;;3.90;;
4084;SDS011;2057;50.858;6.572;2023-04-03T05:33:38;7.10;;;2.73;;
4084;SDS011;2057;50.858;6.572;2023-04-03T05:36:04;11.10;;;3.60;;
4084;SDS011;2057;50.858;6.572;2023-04-03T05:38:30;7.75;;;3.65;;
4084;SDS011;2057;50.858;6.572;2023-04-03T05:40:55;7.70;;;3.63;;
4084;SDS011;2057;50.858;6.572;2023-04-03T05:43:21;10.13;;;3.87;;
4084;SDS011;2057;50.858;6.572;2023-04-03T05:45:50;7.83;;;3.50;;
4084;SDS011;2057;50.858;6.572;2023-04-03T05:48:15;9.77;;;4.35;;
4084;SDS011;2057;50.858;6.572;2023-04-03T05:50:41;5.43;;;3.53;;
4084;SDS011;2057;50.858;6.572;2023-04-03T05:53:07;15.25;;;3.25;;
4084;SDS011;2057;50.858;6.572;2023-04-03T05:55:45;24.80;;;4.10;;
4084;SDS011;2057;50.858;6.572;2023-04-03T05:58:10;17.57;;;3.50;;
4084;SDS011;2057;50.858;6.572;2023-04-03T06:00:36;6.30;;;2.97;;
4084;SDS011;2057;50.858;6.572;2023-04-03T06:03:01;9.30;;;4.70;;
4084;SDS011;2057;50.858;6.572;2023-04-03T06:05:26;7.43;;;4.13;;
4084;SDS011;2057;50.858;6.572;2023-04-03T06:07:52;4.10;;;3.17;;
4084;SDS011;2057;50.858;6.572;2023-04-03T06:10:18;11.80;;;3.60;;
4084;SDS011;2057;50.858;6.572;2023-04-03T06:12:45;6.80;;;3.47;;
4084;SDS011;2057;50.858;6.572;2023-04-03T06:15:10;6.47;;;3.00;;
4084;SDS011;2057;50.858;6.572;2023-04-03T06:17:36;7.30;;;3.72;;
4084;SDS011;2057;50.858;6.572;2023-04-03T06:20:02;14.60;;;4.20;;
4084;SDS011;2057;50.858;6.572;2023-04-03T06:22:29;10.20;;;3.17;;
4084;SDS011;2057;50.858;6.572;2023-04-03T06:24:55;11.98;;;4.20;;
4084;SDS011;2057;50.858;6.572;2023-04-03T06:27:20;8.83;;;2.83;;
4084;SDS011;2057;50.858;6.572;2023-04-03T06:29:46;5.27;;;2.97;;
4084;SDS011;2057;50.858;6.572;2023-04-03T06:32:14;10.38;;;3.40;;
4084;SDS011;2057;50.858;6.572;2023-04-03T06:34:40;8.98;;;3.40;;
4084;SDS011;2057;50.858;6.572;2023-04-03T06:37:06;8.60;;;3.17;;
4084;SDS011;2057;50.858;6.572;2023-04-03T06:39:38;6.25;;;3.45;;
4084;SDS011;2057;50.858;6.572;2023-04-03T06:42:03;3.60;;;2.70;;
4084;SDS011;2057;50.858;6.572;2023-04-03T06:44:29;5.07;;;2.60;;
4084;SDS011;2057;50.858;6.572;2023-04-03T06:46:54;6.00;;;3.00;;
4084;SDS011;2057;50.858;6.572;2023-04-03T06:49:20;5.50;;;2.93;;
4084;SDS011;2057;50.858;6.572;2023-04-03T06:51:45;21.27;;;3.10;;
4084;SDS011;2057;50.858;6.572;2023-04-03T06:54:10;6.73;;;3.13;;
4084;SDS011;2057;50.858;6.572;2023-04-03T06:56:36;6.40;;;3.03;;
4084;SDS011;2057;50.858;6.572;2023-04-03T06:59:02;5.57;;;2.87;;
4084;SDS011;2057;50.858;6.572;2023-04-03T07:01:28;6.25;;;3.00;;
4084;SDS011;2057;50.858;6.572;2023-04-03T07:03:55;9.20;;;3.47;;
4084;SDS011;2057;50.858;6.572;2023-04-03T07:06:21;18.60;;;3.33;;
4084;SDS011;2057;50.858;6.572;2023-04-03T07:08:46;6.43;;;3.30;;
4084;SDS011;2057;50.858;6.572;2023-04-03T07:11:15;6.18;;;2.75;;
4084;SDS011;2057;50.858;6.572;2023-04-03T07:13:41;5.40;;;2.45;;
4084;SDS011;2057;50.858;6.572;2023-04-03T07:16:07;8.23;;;2.53;;
4084;SDS011;2057;50.858;6.572;2023-04-03T07:18:34;18.40;;;3.17;;
4084;SDS011;2057;50.858;6.572;2023-04-03T07:21:00;6.50;;;3.28;;
4084;SDS011;2057;50.858;6.572;2023-04-03T07:23:26;4.70;;;2.20;;
4084;SDS011;2057;50.858;6.572;2023-04-03T07:25:51;4.33;;;2.40;;
4084;SDS011;2057;50.858;6.572;2023-04-03T07:28:18;6.15;;;2.95;;
4084;SDS011;2057;50.858;6.572;2023-04-03T07:30:48;9.48;;;3.55;;
4084;SDS011;2057;50.858;6.572;2023-04-03T07:33:16;8.60;;;3.70;;
4084;SDS011;2057;50.858;6.572;2023-04-03T07:35:42;4.10;;;3.00;;
4084;SDS011;2057;50.858;6.572;2023-04-03T07:38:09;8.32;;;3.60;;
4084;SDS011;2057;50.858;6.572;2023-04-03T07:40:35;7.60;;;2.77;;
4084;SDS011;2057;50.858;6.572;2023-04-03T07:43:01;9.60;;;3.85;;
4084;SDS011;2057;50.858;6.572;2023-04-03T07:45:27;16.70;;;2.97;;
4084;SDS011;2057;50.858;6.572;2023-04-03T07:47:53;14.50;;;3.10;;
4084;SDS011;2057;50.858;6.572;2023-04-03T07:50:19;10.90;;;3.00;;
4084;SDS011;2057;50.858;6.572;2023-04-03T07:52:44;10.60;;;3.67;;
4084;SDS011;2057;50.858;6.572;2023-04-03T07:55:10;7.73;;;3.07;;
4084;SDS011;2057;50.858;6.572;2023-04-03T07:57:36;7.00;;;3.07;;
4084;SDS011;2057;50.858;6.572;2023-04-03T08:00:02;13.40;;;2.97;;
4084;SDS011;2057;50.858;6.572;2023-04-03T08:02:29;5.57;;;2.80;;
4084;SDS011;2057;50.858;6.572;2023-04-03T08:04:56;5.32;;;2.50;;
4084;SDS011;2057;50.858;6.572;2023-04-03T08:07:22;15.13;;;4.07;;
4084;SDS011;2057;50.858;6.572;2023-04-03T08:09:48;8.07;;;2.87;;
4084;SDS011;2057;50.858;6.572;2023-04-03T08:12:14;5.93;;;2.50;;
4084;SDS011;2057;50.858;6.572;2023-04-03T08:14:39;8.87;;;2.90;;
4084;SDS011;2057;50.858;6.572;2023-04-03T08:17:05;4.37;;;3.17;;
4084;SDS011;2057;50.858;6.572;2023-04-03T08:19:34;11.52;;;4.00;;
4084;SDS011;2057;50.858;6.572;2023-04-03T08:22:00;8.40;;;3.50;;
4084;SDS011;2057;50.858;6.572;2023-04-03T08:24:28;4.65;;;2.50;;
4084;SDS011;2057;50.858;6.572;2023-04-03T08:26:53;7.00;;;2.30;;
4084;SDS011;2057;50.858;6.572;2023-04-03T08:29:19;16.43;;;3.10;;
4084;SDS011;2057;50.858;6.572;2023-04-03T08:31:46;5.40;;;2.55;;
4084;SDS011;2057;50.858;6.572;2023-04-03T08:34:11;3.80;;;2.97;;
4084;SDS011;2057;50.858;6.572;2023-04-03T08:36:38;7.68;;;3.42;;
4084;SDS011;2057;50.858;6.572;2023-04-03T08:39:03;7.83;;;3.30;;
4084;SDS011;2057;50.858;6.572;2023-04-03T08:49:41;7.25;;;3.25;;
4084;SDS011;2057;50.858;6.572;2023-04-03T08:52:15;6.22;;;2.72;;
4084;SDS011;2057;50.858;6.572;2023-04-03T08:54:53;8.50;;;2.42;;
4084;SDS011;2057;50.858;6.572;2023-04-03T08:57:27;7.82;;;2.25;;
4084;SDS011;2057;50.858;6.572;2023-04-03T09:02:46;5.78;;;3.00;;
4084;SDS011;2057;50.858;6.572;2023-04-03T09:16:21;12.80;;;2.38;;
4084;SDS011;2057;50.858;6.572;2023-04-03T09:24:45;4.72;;;2.45;;
4084;SDS011;2057;50.858;6.572;2023-04-03T09:27:15;9.63;;;2.60;;
4084;SDS011;2057;50.858;6.572;2023-04-03T09:29:43;8.20;;;2.70;;
4084;SDS011;2057;50.858;6.572;2023-04-03T09:32:44;5.25;;;1.95;;
4084;SDS011;2057;50.858;6.572;2023-04-03T09:35:25;3.70;;;2.03;;
4084;SDS011;2057;50.858;6.572;2023-04-03T09:38:02;14.90;;;2.03;;
4084;SDS011;2057;50.858;6.572;2023-04-03T09:40:39;4.28;;;1.48;;
4084;SDS011;2057;50.858;6.572;2023-04-03T09:45:52;10.95;;;2.50;;
4084;SDS011;2057;50.858;6.572;2023-04-03T09:48:20;15.20;;;2.72;;
4084;SDS011;2057;50.858;6.572;2023-04-03T09:58:50;6.10;;;1.77;;
4084;SDS011;2057;50.858;6.572;2023-04-03T10:01:36;4.78;;;2.22;;
4084;SDS011;2057;50.858;6.572;2023-04-03T10:06:41;8.57;;;2.08;;
4084;SDS011;2057;50.858;6.572;2023-04-03T10:09:25;4.22;;;1.95;;
4084;SDS011;2057;50.858;6.572;2023-04-03T10:22:18;4.57;;;1.85;;
4084;SDS011;2057;50.858;6.572;2023-04-03T10:35:49;3.45;;;2.05;;
4084;SDS011;2057;50.858;6.572;2023-04-03T10:44:12;4.65;;;2.10;;
4084;SDS011;2057;50.858;6.572;2023-04-03T10:46:49;2.70;;;1.40;;
4084;SDS011;2057;50.858;6.572;2023-04-03T10:49:27;8.27;;;2.28;;
4084;SDS011;2057;50.858;6.572;2023-04-03T10:52:22;4.70;;;1.40;;
4084;SDS011;2057;50.858;6.572;2023-04-03T10:55:00;2.72;;;2.10;;
4084;SDS011;2057;50.858;6.572;2023-04-03T10:57:27;8.13;;;2.10;;
4084;SDS011;2057;50.858;6.572;2023-04-03T10:59:56;3.03;;;1.73;;
4084;SDS011;2057;50.858;6.572;2023-04-03T11:04:57;4.40;;;2.10;;
4084;SDS011;2057;50.858;6.572;2023-04-03T11:07:36;9.33;;;1.97;;
4084;SDS011;2057;50.858;6.572;2023-04-03T11:10:14;5.50;;;2.20;;
4084;SDS011;2057;50.858;6.572;2023-04-03T11:13:34;4.90;;;1.83;;
4084;SDS011;2057;50.858;6.572;2023-04-03T11:15:34;9.33;;;2.53;;
4084;SDS011;2057;50.858;6.572;2023-04-03T11:18:06;3.77;;;1.70;;
4084;SDS011;2057;50.858;6.572;2023-04-03T11:20:38;5.87;;;1.73;;
4084;SDS011;2057;50.858;6.572;2023-04-03T11:23:26;9.67;;;2.10;;
4084;SDS011;2057;50.858;6.572;2023-04-03T11:25:54;2.50;;;1.47;;
4084;SDS011;2057;50.858;6.572;2023-04-03T11:28:25;4.40;;;1.53;;
4084;SDS011;2057;50.858;6.572;2023-04-03T11:30:58;9.57;;;2.30;;
4084;SDS011;2057;50.858;6.572;2023-04-03T11:36:30;3.53;;;1.50;;
4084;SDS011;2057;50.858;6.572;2023-04-03T11:39:01;4.77;;;1.80;;
4084;SDS011;2057;50.858;6.572;2023-04-03T11:41:45;7.57;;;2.10;;
4084;SDS011;2057;50.858;6.572;2023-04-03T11:46:55;2.50;;;1.70;;
4084;SDS011;2057;50.858;6.572;2023-04-03T12:05:49;4.40;;;1.40;;
4084;SDS011;2057;50.858;6.572;2023-04-03T12:08:16;5.67;;;2.20;;
4084;SDS011;2057;50.858;6.572;2023-04-03T12:13:37;2.93;;;1.70;;
4084;SDS011;2057;50.858;6.572;2023-04-03T12:21:20;4.13;;;1.50;;
4084;SDS011;2057;50.858;6.572;2023-04-03T12:29:25;3.20;;;1.43;;
4084;SDS011;2057;50.858;6.572;2023-04-03T12:40:25;6.50;;;1.20;;
4084;SDS011;2057;50.858;6.572;2023-04-03T12:45:37;3.43;;;1.37;;
4084;SDS011;2057;50.858;6.572;2023-04-03T12:48:10;7.50;;;1.93;;
4084;SDS011;2057;50.858;6.572;2023-04-03T12:50:43;4.23;;;1.37;;
4084;SDS011;2057;50.858;6.572;2023-04-03T12:53:12;7.13;;;2.00;;
4084;SDS011;2057;50.858;6.572;2023-04-03T12:55:42;9.33;;;1.87;;
4084;SDS011;2057;50.858;6.572;2023-04-03T12:58:28;4.60;;;1.73;;
4084;SDS011;2057;50.858;6.572;2023-04-03T13:01:00;3.97;;;1.73;;
4084;SDS011;2057;50.858;6.572;2023-04-03T13:03:28;7.53;;;2.50;;
4084;SDS011;2057;50.858;6.572;2023-04-03T13:05:59;2.50;;;1.50;;
4084;SDS011;2057;50.858;6.572;2023-04-03T13:08:27;2.73;;;1.43;;
4084;SDS011;2057;50.858;6.572;2023-04-03T13:11:02;5.70;;;1.70;;
4084;SDS011;2057;50.858;6.572;2023-04-03T13:13:34;5.53;;;1.67;;
4084;SDS011;2057;50.858;6.572;2023-04-03T13:16:10;2.57;;;1.80;;
4084;SDS011;2057;50.858;6.572;2023-04-03T13:18:37;4.30;;;1.53;;
4084;SDS011;2057;50.858;6.572;2023-04-03T13:23:38;4.23;;;1.67;;
4084;SDS011;2057;50.858;6.572;2023-04-03T13:26:07;1.80;;;1.43;;
4084;SDS011;2057;50.858;6.572;2023-04-03T13:28:33;5.43;;;1.80;;
4084;SDS011;2057;50.858;6.572;2023-04-03T13:31:05;4.70;;;2.10;;
4084;SDS011;2057;50.858;6.572;2023-04-03T13:33:35;5.13;;;1.23;;
4084;SDS011;2057;50.858;6.572;2023-04-03T13:36:17;5.47;;;1.73;;
4084;SDS011;2057;50.858;6.572;2023-04-03T13:38:45;4.20;;;1.77;;
4084;SDS011;2057;50.858;6.572;2023-04-03T13:41:23;6.27;;;2.03;;
4084;SDS011;2057;50.858;6.572;2023-04-03T13:43:51;9.17;;;1.60;;
4084;SDS011;2057;50.858;6.572;2023-04-03T13:48:45;5.00;;;1.50;;
4084;SDS011;2057;50.858;6.572;2023-04-03T13:53:44;3.13;;;1.50;;
4084;SDS011;2057;50.858;6.572;2023-04-03T13:58:54;10.13;;;1.50;;
4084;SDS011;2057;50.858;6.572;2023-04-03T14:01:48;2.17;;;1.43;;
4084;SDS011;2057;50.858;6.572;2023-04-03T14:04:25;1.73;;;1.50;;
4084;SDS011;2057;50.858;6.572;2023-04-03T14:07:08;10.10;;;2.17;;
4084;SDS011;2057;50.858;6.572;2023-04-03T14:09:34;2.90;;;1.50;;
4084;SDS011;2057;50.858;6.572;2023-04-03T14:12:02;5.80;;;1.80;;
4084;SDS011;2057;50.858;6.572;2023-04-03T14:14:33;2.67;;;1.70;;
4084;SDS011;2057;50.858;6.572;2023-04-03T14:17:01;1.73;;;1.30;;
4084;SDS011;2057;50.858;6.572;2023-04-03T14:19:35;1.57;;;1.30;;
4084;SDS011;2057;50.858;6.572;2023-04-03T14:22:05;1.27;;;1.17;;
4084;SDS011;2057;50.858;6.572;2023-04-03T14:24:38;4.80;;;1.67;;
4084;SDS011;2057;50.858;6.572;2023-04-03T14:27:05;3.20;;;1.40;;
4084;SDS011;2057;50.858;6.572;2023-04-03T14:29:40;4.10;;;1.57;;
4084;SDS011;2057;50.858;6.572;2023-04-03T14:32:06;2.20;;;1.53;;
4084;SDS011;2057;50.858;6.572;2023-04-03T14:34:31;3.80;;;1.40;;
4084;SDS011;2057;50.858;6.572;2023-04-03T14:36:57;11.17;;;1.60;;
4084;SDS011;2057;50.858;6.572;2023-04-03T14:39:22;3.87;;;1.50;;
4084;SDS011;2057;50.858;6.572;2023-04-03T14:41:47;3.10;;;1.37;;
4084;SDS011;2057;50.858;6.572;2023-04-03T14:44:13;4.70;;;1.37;;
4084;SDS011;2057;50.858;6.572;2023-04-03T14:46:39;4.67;;;1.50;;
4084;SDS011;2057;50.858;6.572;2023-04-03T14:49:12;3.83;;;1.53;;
4084;SDS011;2057;50.858;6.572;2023-04-03T14:51:40;5.13;;;1.30;;
4084;SDS011;2057;50.858;6.572;2023-04-03T14:54:10;2.00;;;1.37;;
4084;SDS011;2057;50.858;6.572;2023-04-03T14:56:39;4.37;;;2.10;;
4084;SDS011;2057;50.858;6.572;2023-04-03T14:59:05;5.83;;;1.43;;
4084;SDS011;2057;50.858;6.572;2023-04-03T15:01:36;2.77;;;1.40;;
4084;SDS011;2057;50.858;6.572;2023-04-03T15:04:01;3.33;;;1.90;;
4084;SDS011;2057;50.858;6.572;2023-04-03T15:06:26;14.17;;;1.77;;
4084;SDS011;2057;50.858;6.572;2023-04-03T15:08:52;5.47;;;1.90;;
4084;SDS011;2057;50.858;6.572;2023-04-03T15:11:17;4.10;;;2.07;;
4084;SDS011;2057;50.858;6.572;2023-04-03T15:13:43;3.43;;;1.77;;
4084;SDS011;2057;50.858;6.572;2023-04-03T15:16:14;7.80;;;1.97;;
4084;SDS011;2057;50.858;6.572;2023-04-03T15:18:41;4.03;;;1.50;;
4084;SDS011;2057;50.858;6.572;2023-04-03T15:21:07;2.03;;;1.30;;
4084;SDS011;2057;50.858;6.572;2023-04-03T15:23:32;10.00;;;1.40;;
4084;SDS011;2057;50.858;6.572;2023-04-03T15:25:57;6.47;;;1.60;;
4084;SDS011;2057;50.858;6.572;2023-04-03T15:30:51;5.83;;;2.37;;
4084;SDS011;2057;50.858;6.572;2023-04-03T15:33:17;4.53;;;2.03;;
4084;SDS011;2057;50.858;6.572;2023-04-03T15:35:42;5.00;;;2.00;;
4084;SDS011;2057;50.858;6.572;2023-04-03T15:38:08;4.23;;;1.60;;
4084;SDS011;2057;50.858;6.572;2023-04-03T15:40:34;3.00;;;1.70;;
4084;SDS011;2057;50.858;6.572;2023-04-03T15:42:59;2.60;;;1.70;;
4084;SDS011;2057;50.858;6.572;2023-04-03T15:45:25;2.30;;;1.37;;
4084;SDS011;2057;50.858;6.572;2023-04-03T15:47:54;3.53;;;1.97;;
4084;SDS011;2057;50.858;6.572;2023-04-03T15:50:19;2.80;;;1.70;;
4084;SDS011;2057;50.858;6.572;2023-04-03T15:52:47;2.47;;;1.70;;
4084;SDS011;2057;50.858;6.572;2023-04-03T15:55:13;3.50;;;1.73;;
4084;SDS011;2057;50.858;6.572;2023-04-03T15:57:38;3.90;;;2.00;;
4084;SDS011;2057;50.858;6.572;2023-04-03T16:00:04;3.10;;;1.70;;
4084;SDS011;2057;50.858;6.572;2023-04-03T16:02:30;3.27;;;1.90;;
4084;SDS011;2057;50.858;6.572;2023-04-03T16:04:56;7.60;;;1.67;;
4084;SDS011;2057;50.858;6.572;2023-04-03T16:07:22;5.03;;;1.93;;
4084;SDS011;2057;50.858;6.572;2023-04-03T16:09:47;4.10;;;2.20;;
4084;SDS011;2057;50.858;6.572;2023-04-03T16:12:12;6.40;;;2.03;;
4084;SDS011;2057;50.858;6.572;2023-04-03T16:14:38;5.47;;;2.00;;
4084;SDS011;2057;50.858;6.572;2023-04-03T16:17:03;4.60;;;1.90;;
4084;SDS011;2057;50.858;6.572;2023-04-03T16:19:29;5.90;;;2.10;;
4084;SDS011;2057;50.858;6.572;2023-04-03T16:21:55;2.77;;;1.50;;
4084;SDS011;2057;50.858;6.572;2023-04-03T16:24:21;5.80;;;1.47;;
4084;SDS011;2057;50.858;6.572;2023-04-03T16:26:46;2.20;;;1.47;;
4084;SDS011;2057;50.858;6.572;2023-04-03T16:29:12;4.00;;;1.40;;
4084;SDS011;2057;50.858;6.572;2023-04-03T16:31:37;3.17;;;1.53;;
4084;SDS011;2057;50.858;6.572;2023-04-03T16:34:02;3.13;;;1.33;;
4084;SDS011;2057;50.858;6.572;2023-04-03T16:36:28;13.97;;;2.50;;
4084;SDS011;2057;50.858;6.572;2023-04-03T16:38:53;4.10;;;1.87;;
4084;SDS011;2057;50.858;6.572;2023-04-03T16:41:19;3.77;;;2.10;;
4084;SDS011;2057;50.858;6.572;2023-04-03T16:43:44;8.40;;;2.17;;
4084;SDS011;2057;50.858;6.572;2023-04-03T16:46:09;4.17;;;1.73;;
4084;SDS011;2057;50.858;6.572;2023-04-03T16:48:35;4.70;;;1.80;;
4084;SDS011;2057;50.858;6.572;2023-04-03T16:51:00;2.80;;;1.87;;
4084;SDS011;2057;50.858;6.572;2023-04-03T16:53:26;5.50;;;2.00;;
4084;SDS011;2057;50.858;6.572;2023-04-03T16:55:52;5.90;;;1.90;;
4084;SDS011;2057;50.858;6.572;2023-04-03T16:58:18;5.43;;;1.30;;
4084;SDS011;2057;50.858;6.572;2023-04-03T17:00:43;3.80;;;2.03;;
4084;SDS011;2057;50.858;6.572;2023-04-03T17:03:08;5.03;;;1.63;;
4084;SDS011;2057;50.858;6.572;2023-04-03T17:05:34;2.70;;;1.60;;
4084;SDS011;2057;50.858;6.572;2023-04-03T17:08:00;4.30;;;1.80;;
4084;SDS011;2057;50.858;6.572;2023-04-03T17:10:26;2.17;;;1.40;;
4084;SDS011;2057;50.858;6.572;2023-04-03T17:12:52;4.97;;;1.93;;
4084;SDS011;2057;50.858;6.572;2023-04-03T17:15:17;8.50;;;1.50;;
4084;SDS011;2057;50.858;6.572;2023-04-03T17:17:44;5.13;;;1.90;;
4084;SDS011;2057;50.858;6.572;2023-04-03T17:20:11;2.80;;;2.00;;
4084;SDS011;2057;50.858;6.572;2023-04-03T17:22:38;1.90;;;1.70;;
4084;SDS011;2057;50.858;6.572;2023-04-03T17:25:04;3.17;;;1.53;;
4084;SDS011;2057;50.858;6.572;2023-04-03T17:27:32;2.93;;;1.80;;
4084;SDS011;2057;50.858;6.572;2023-04-03T17:29:58;4.60;;;2.07;;
4084;SDS011;2057;50.858;6.572;2023-04-03T17:32:23;4.53;;;2.10;;
4084;SDS011;2057;50.858;6.572;2023-04-03T17:34:50;6.47;;;2.30;;
4084;SDS011;2057;50.858;6.572;2023-04-03T17:37:15;6.27;;;2.20;;
4084;SDS011;2057;50.858;6.572;2023-04-03T17:39:41;4.00;;;1.87;;